createdAt,value
2022-09-10T00:01:21.240Z,14.92
2022-09-10T00:03:51.246Z,14.94
2022-09-10T00:06:18.934Z,14.96
2022-09-10T00:08:46.584Z,14.98
2022-09-10T00:11:14.940Z,14.98
2022-09-10T00:13:42.239Z,14.96
2022-09-10T00:16:12.039Z,14.98
2022-09-10T00:18:39.884Z,15.00
2022-09-10T00:21:10.342Z,15.00
2022-09-10T00:23:37.462Z,15.02
2022-09-10T00:26:23.210Z,15.04
2022-09-10T00:28:51.064Z,15.07
2022-09-10T00:31:18.928Z,15.09
2022-09-10T00:33:45.451Z,15.10
2022-09-10T00:36:26.655Z,15.09
2022-09-10T00:38:54.834Z,15.07
2022-09-10T00:41:23.340Z,15.08
2022-09-10T00:43:57.256Z,15.09
2022-09-10T00:46:38.875Z,15.10
2022-09-10T00:49:14.476Z,15.09
2022-09-10T00:51:41.608Z,15.09
2022-09-10T00:54:08.265Z,15.08
2022-09-10T00:56:34.914Z,15.08
2022-09-10T00:59:04.137Z,15.07
2022-09-10T01:01:33.422Z,15.05
2022-09-10T01:04:01.321Z,15.02
2022-09-10T01:06:27.991Z,15.01
2022-09-10T01:08:54.352Z,15.02
2022-09-10T01:11:47.672Z,15.00
2022-09-10T01:14:27.824Z,14.98
2022-09-10T01:17:38.667Z,14.95
2022-09-10T01:20:56.538Z,14.92
2022-09-10T01:23:45.002Z,14.89
2022-09-10T01:26:30.036Z,14.88
2022-09-10T01:29:05.424Z,14.86
2022-09-10T01:31:54.030Z,14.85
2022-09-10T01:34:27.617Z,14.84
2022-09-10T01:37:00.088Z,14.83
2022-09-10T01:39:27.323Z,14.80
2022-09-10T01:41:54.439Z,14.82
2022-09-10T01:44:47.425Z,14.82
2022-09-10T01:47:51.316Z,14.81
2022-09-10T01:50:34.244Z,14.80
2022-09-10T01:53:23.221Z,14.81
2022-09-10T01:55:55.201Z,14.79
2022-09-10T01:58:36.579Z,14.76
2022-09-10T02:01:14.841Z,14.76
2022-09-10T02:03:44.532Z,14.75
2022-09-10T02:06:14.958Z,14.75
2022-09-10T02:08:45.385Z,14.76
2022-09-10T02:11:14.196Z,14.74
2022-09-10T02:13:44.173Z,14.76
2022-09-10T02:16:18.367Z,14.75
2022-09-10T02:18:44.860Z,14.76
2022-09-10T02:21:11.973Z,14.79
2022-09-10T02:23:44.232Z,14.79
2022-09-10T02:26:12.066Z,14.81
2022-09-10T02:28:39.652Z,14.82
2022-09-10T02:31:06.273Z,14.83
2022-09-10T02:33:32.673Z,14.84
2022-09-10T02:35:59.135Z,14.84
2022-09-10T02:38:25.444Z,14.84
2022-09-10T02:40:51.767Z,14.88
2022-09-10T02:43:18.091Z,14.90
2022-09-10T02:45:44.702Z,14.91
2022-09-10T02:48:11.132Z,14.94
2022-09-10T02:50:37.680Z,14.95
2022-09-10T02:53:04.062Z,14.96
2022-09-10T02:55:31.427Z,14.95
2022-09-10T02:57:58.339Z,14.94
2022-09-10T03:00:24.906Z,14.95
2022-09-10T03:02:51.276Z,14.96
2022-09-10T03:05:17.705Z,14.98
2022-09-10T03:07:44.785Z,14.98
2022-09-10T03:10:11.117Z,15.00
2022-09-10T03:12:39.139Z,15.00
2022-09-10T03:15:06.096Z,15.01
2022-09-10T03:17:32.802Z,15.02
2022-09-10T03:19:59.164Z,15.02
2022-09-10T03:22:25.559Z,15.06
2022-09-10T03:24:51.928Z,15.04
2022-09-10T03:27:18.305Z,15.07
2022-09-10T03:29:45.254Z,15.08
2022-09-10T03:32:11.581Z,15.08
2022-09-10T03:34:39.120Z,15.09
2022-09-10T03:37:05.834Z,15.09
2022-09-10T03:39:32.259Z,15.09
2022-09-10T03:41:58.645Z,15.09
2022-09-10T03:44:25.281Z,15.11
2022-09-10T03:46:51.943Z,15.13
2022-09-10T03:49:18.362Z,15.13
2022-09-10T03:51:44.694Z,15.12
2022-09-10T03:54:11.503Z,15.12
2022-09-10T03:56:37.978Z,15.12
2022-09-10T03:59:04.396Z,15.13
2022-09-10T04:01:30.861Z,15.14
2022-09-10T04:03:57.407Z,15.14
2022-09-10T04:06:24.040Z,15.14
2022-09-10T04:08:52.671Z,15.16
2022-09-10T04:11:20.472Z,15.15
2022-09-10T04:13:48.441Z,15.16
2022-09-10T04:16:16.335Z,15.18
2022-09-10T04:18:42.825Z,15.19
2022-09-10T04:21:09.245Z,15.21
2022-09-10T04:23:35.644Z,15.23
2022-09-10T04:26:11.348Z,15.21
2022-09-10T04:28:38.288Z,15.20
2022-09-10T04:31:04.662Z,15.16
2022-09-10T04:33:33.079Z,15.09
2022-09-10T04:36:02.299Z,15.06
2022-09-10T04:38:30.402Z,15.04
2022-09-10T04:40:57.895Z,15.04
2022-09-10T04:43:28.273Z,15.04
2022-09-10T04:45:55.745Z,15.05
2022-09-10T04:48:22.893Z,15.05
2022-09-10T04:51:14.865Z,15.06
2022-09-10T04:53:40.419Z,15.07
2022-09-10T04:56:07.994Z,15.07
2022-09-10T04:58:38.693Z,15.07
2022-09-10T05:01:05.843Z,15.08
2022-09-10T05:03:32.339Z,15.09
2022-09-10T05:05:58.705Z,15.12
2022-09-10T05:08:25.076Z,15.11
2022-09-10T05:10:51.479Z,15.13
2022-09-10T05:13:18.180Z,15.14
2022-09-10T05:15:45.998Z,15.13
2022-09-10T05:18:12.340Z,15.16
2022-09-10T05:20:38.701Z,15.15
2022-09-10T05:23:05.113Z,15.19
2022-09-10T05:25:31.575Z,15.19
2022-09-10T05:27:57.952Z,15.16
2022-09-10T05:30:24.643Z,15.19
2022-09-10T05:32:53.173Z,15.19
2022-09-10T05:35:19.847Z,15.21
2022-09-10T05:37:46.223Z,15.24
2022-09-10T05:40:14.484Z,15.24
2022-09-10T05:42:40.848Z,15.27
2022-09-10T05:45:07.794Z,15.28
2022-09-10T05:47:34.428Z,15.32
2022-09-10T05:50:00.785Z,15.34
2022-09-10T05:52:27.116Z,15.36
2022-09-10T05:54:56.424Z,15.40
2022-09-10T05:57:22.765Z,15.40
2022-09-10T05:59:49.081Z,15.41
2022-09-10T06:02:23.755Z,15.43
2022-09-10T06:04:50.528Z,15.47
2022-09-10T06:07:16.908Z,15.47
2022-09-10T06:09:43.599Z,15.54
2022-09-10T06:12:09.983Z,15.54
2022-09-10T06:14:36.302Z,15.58
2022-09-10T06:17:02.749Z,15.55
2022-09-10T06:19:29.598Z,15.55
2022-09-10T06:21:56.089Z,15.56
2022-09-10T06:24:24.360Z,15.54
2022-09-10T06:26:50.807Z,15.59
2022-09-10T06:29:19.152Z,15.62
2022-09-10T06:31:47.000Z,15.63
2022-09-10T06:34:13.397Z,15.62
2022-09-10T06:36:39.804Z,15.66
2022-09-10T06:39:07.149Z,15.73
2022-09-10T06:41:35.065Z,15.73
2022-09-10T06:44:01.577Z,15.78
2022-09-10T06:49:15.241Z,15.87
2022-09-10T06:51:42.307Z,15.91
2022-09-10T06:54:08.683Z,15.98
2022-09-10T06:56:35.028Z,16.04
2022-09-10T06:59:02.699Z,16.07
2022-09-10T07:01:29.374Z,16.14
2022-09-10T07:03:57.591Z,16.24
2022-09-10T07:06:25.767Z,16.31
2022-09-10T07:08:56.950Z,16.47
2022-09-10T07:11:24.806Z,16.58
2022-09-10T07:13:53.150Z,16.69
2022-09-10T07:16:20.957Z,16.84
2022-09-10T07:18:51.899Z,16.94
2022-09-10T07:21:19.188Z,16.85
2022-09-10T07:23:48.387Z,16.83
2022-09-10T07:26:17.277Z,16.81
2022-09-10T07:28:43.981Z,16.81
2022-09-10T07:31:19.582Z,16.87
2022-09-10T07:33:47.203Z,16.92
2022-09-10T07:36:14.305Z,16.99
2022-09-10T07:38:41.760Z,17.06
2022-09-10T07:41:11.195Z,17.18
2022-09-10T07:43:41.863Z,17.27
2022-09-10T07:46:12.734Z,17.31
2022-09-10T07:48:41.392Z,17.37
2022-09-10T07:51:09.045Z,17.37
2022-09-10T07:53:35.842Z,17.45
2022-09-10T07:56:07.465Z,17.44
2022-09-10T07:58:35.740Z,17.51
2022-09-10T08:01:02.364Z,17.60
2022-09-10T08:03:29.736Z,17.64
2022-09-10T08:06:00.987Z,17.64
2022-09-10T08:08:31.827Z,17.68
2022-09-10T08:11:12.206Z,17.76
2022-09-10T08:13:41.257Z,17.74
2022-09-10T08:16:09.885Z,17.81
2022-09-10T08:18:37.154Z,17.87
2022-09-10T08:21:05.037Z,17.89
2022-09-10T08:23:31.736Z,18.00
2022-09-10T08:25:58.262Z,17.99
2022-09-10T08:28:27.220Z,17.98
2022-09-10T08:31:00.454Z,18.00
2022-09-10T08:33:27.315Z,18.00
2022-09-10T08:36:00.645Z,18.05
2022-09-10T08:38:30.883Z,18.05
2022-09-10T08:40:59.980Z,18.12
2022-09-10T08:43:42.739Z,18.23
2022-09-10T08:46:22.339Z,18.30
2022-09-10T08:48:58.726Z,18.38
2022-09-10T08:51:30.164Z,18.47
2022-09-10T08:54:03.069Z,18.51
2022-09-10T08:56:31.173Z,18.53
2022-09-10T08:59:04.332Z,18.55
2022-09-10T09:01:40.461Z,18.52
2022-09-10T09:04:18.856Z,18.42
2022-09-10T09:06:51.352Z,18.41
2022-09-10T09:09:17.987Z,18.43
2022-09-10T09:12:10.153Z,18.49
2022-09-10T09:15:04.731Z,18.53
2022-09-10T09:17:52.976Z,18.59
2022-09-10T09:20:50.208Z,18.81
2022-09-10T09:23:27.744Z,19.05
2022-09-10T09:26:11.664Z,19.04
2022-09-10T09:29:02.621Z,19.04
2022-09-10T09:31:32.553Z,19.22
2022-09-10T09:34:09.857Z,19.42
2022-09-10T09:36:47.993Z,19.68
2022-09-10T09:39:25.766Z,20.02
2022-09-10T09:42:12.985Z,20.24
2022-09-10T09:45:06.898Z,20.47
2022-09-10T09:47:33.739Z,20.52
2022-09-10T09:50:00.370Z,20.82
2022-09-10T09:52:31.146Z,21.09
2022-09-10T09:55:14.905Z,21.06
2022-09-10T09:57:42.633Z,21.20
2022-09-10T10:00:35.980Z,21.68
2022-09-10T10:03:26.464Z,21.49
2022-09-10T10:06:03.281Z,21.35
2022-09-10T10:08:37.646Z,21.13
2022-09-10T10:11:04.771Z,20.78
2022-09-10T10:13:42.523Z,20.67
2022-09-10T10:16:45.069Z,20.72
2022-09-10T10:19:37.759Z,21.08
2022-09-10T10:22:19.257Z,21.86
2022-09-10T10:24:47.940Z,22.25
2022-09-10T10:27:16.762Z,22.60
2022-09-10T10:29:55.654Z,22.96
2022-09-10T10:32:32.161Z,22.87
2022-09-10T10:35:27.419Z,22.24
2022-09-10T10:38:00.913Z,21.92
2022-09-10T10:40:34.169Z,21.74
2022-09-10T10:43:39.183Z,21.68
2022-09-10T10:46:17.137Z,21.61
2022-09-10T10:49:05.234Z,21.57
2022-09-10T10:51:34.548Z,21.63
2022-09-10T10:54:28.378Z,21.60
2022-09-10T10:57:11.765Z,21.63
2022-09-10T11:00:00.996Z,21.74
2022-09-10T11:03:09.959Z,22.03
2022-09-10T11:05:48.034Z,22.20
2022-09-10T11:08:21.412Z,22.54
2022-09-10T11:10:56.183Z,23.15
2022-09-10T11:13:35.896Z,23.72
2022-09-10T11:16:25.993Z,23.66
2022-09-10T11:19:08.927Z,23.20
2022-09-10T11:21:40.187Z,23.02
2022-09-10T11:24:18.682Z,22.71
2022-09-10T11:26:51.114Z,22.57
2022-09-10T11:29:35.881Z,22.42
2022-09-10T11:32:48.534Z,22.37
2022-09-10T11:35:34.684Z,22.29
2022-09-10T11:38:04.041Z,22.19
2022-09-10T11:40:46.245Z,22.12
2022-09-10T11:43:19.606Z,22.00
2022-09-10T11:45:57.485Z,22.08
2022-09-10T11:48:37.094Z,22.20
2022-09-10T11:51:12.415Z,22.28
2022-09-10T11:53:38.831Z,22.37
2022-09-10T11:56:05.398Z,22.81
2022-09-10T11:58:37.998Z,23.30
2022-09-10T12:01:19.761Z,23.56
2022-09-10T12:03:46.140Z,23.68
2022-09-10T12:06:22.115Z,23.26
2022-09-10T12:09:03.701Z,22.90
2022-09-10T12:12:03.272Z,22.71
2022-09-10T12:14:30.325Z,22.67
2022-09-10T12:17:02.465Z,22.61
2022-09-10T12:19:37.316Z,22.66
2022-09-10T12:22:18.812Z,22.69
2022-09-10T12:24:54.541Z,23.58
2022-09-10T12:27:21.515Z,24.04
2022-09-10T12:29:49.078Z,24.28
2022-09-10T12:32:21.350Z,24.81
2022-09-10T12:35:08.282Z,25.05
2022-09-10T12:37:34.629Z,24.92
2022-09-10T12:40:39.675Z,24.11
2022-09-10T12:43:41.442Z,23.91
2022-09-10T12:46:11.929Z,24.02
2022-09-10T12:48:44.899Z,24.62
2022-09-10T12:51:20.482Z,24.47
2022-09-10T12:54:24.217Z,24.03
2022-09-10T12:57:16.262Z,23.77
2022-09-10T12:59:54.569Z,23.47
2022-09-10T13:02:33.889Z,23.33
2022-09-10T13:05:17.182Z,23.15
2022-09-10T13:07:45.144Z,23.45
2022-09-10T13:10:22.047Z,23.49
2022-09-10T13:12:55.426Z,23.46
2022-09-10T13:15:29.870Z,23.63
2022-09-10T13:17:56.395Z,24.12
2022-09-10T13:20:22.678Z,23.81
2022-09-10T13:23:01.438Z,23.30
2022-09-10T13:25:34.830Z,23.00
2022-09-10T13:28:01.830Z,23.22
2022-09-10T13:30:29.701Z,23.41
2022-09-10T13:33:00.945Z,24.21
2022-09-10T13:35:42.185Z,24.94
2022-09-10T13:38:24.136Z,25.24
2022-09-10T13:41:23.856Z,24.69
2022-09-10T13:44:01.183Z,24.15
2022-09-10T13:46:37.775Z,23.77
2022-09-10T13:49:19.368Z,23.50
2022-09-10T13:51:53.067Z,23.19
2022-09-10T13:54:32.933Z,22.94
2022-09-10T13:57:20.956Z,22.88
2022-09-10T13:59:50.490Z,22.69
2022-09-10T14:02:19.703Z,22.45
2022-09-10T14:04:46.912Z,22.69
2022-09-10T14:07:28.428Z,23.46
2022-09-10T14:10:00.658Z,24.17
2022-09-10T14:12:29.243Z,24.36
2022-09-10T14:15:00.279Z,23.75
2022-09-10T14:17:34.260Z,23.42
2022-09-10T14:20:02.883Z,23.09
2022-09-10T14:22:31.732Z,22.83
2022-09-10T14:25:00.666Z,22.57
2022-09-10T14:27:34.905Z,22.67
2022-09-10T14:30:23.028Z,22.73
2022-09-10T14:32:49.847Z,22.68
2022-09-10T14:35:39.976Z,23.11
2022-09-10T14:38:34.090Z,23.10
2022-09-10T14:41:08.816Z,23.08
2022-09-10T14:43:38.337Z,22.93
2022-09-10T14:46:09.930Z,22.84
2022-09-10T14:49:04.504Z,22.71
2022-09-10T14:51:30.841Z,22.54
2022-09-10T14:53:58.588Z,22.44
2022-09-10T14:56:36.360Z,22.47
2022-09-10T14:59:15.286Z,22.52
2022-09-10T15:01:43.916Z,22.58
2022-09-10T15:04:15.775Z,22.81
2022-09-10T15:06:43.931Z,23.03
2022-09-10T15:09:12.557Z,23.41
2022-09-10T15:11:53.443Z,23.48
2022-09-10T15:14:21.124Z,23.36
2022-09-10T15:16:50.573Z,23.11
2022-09-10T15:19:17.336Z,22.83
2022-09-10T15:21:43.720Z,22.96
2022-09-10T15:24:14.188Z,23.31
2022-09-10T15:26:41.147Z,23.26
2022-09-10T15:29:07.716Z,23.07
2022-09-10T15:31:35.705Z,23.12
2022-09-10T15:34:03.081Z,23.24
2022-09-10T15:36:29.662Z,23.35
2022-09-10T15:38:56.053Z,23.28
2022-09-10T15:41:22.392Z,23.15
2022-09-10T15:43:48.721Z,22.84
2022-09-10T15:46:16.958Z,22.61
2022-09-10T15:48:45.003Z,22.63
2022-09-10T15:51:17.089Z,22.53
2022-09-10T15:53:43.888Z,22.52
2022-09-10T15:56:11.722Z,22.49
2022-09-10T15:58:38.990Z,22.38
2022-09-10T16:01:08.839Z,22.33
2022-09-10T16:03:35.177Z,22.18
2022-09-10T16:06:03.240Z,22.09
2022-09-10T16:08:30.302Z,21.94
2022-09-10T16:10:56.972Z,21.85
2022-09-10T16:13:25.852Z,21.68
2022-09-10T16:16:03.829Z,21.64
2022-09-10T16:18:32.295Z,21.49
2022-09-10T16:21:06.608Z,21.44
2022-09-10T16:23:34.475Z,21.29
2022-09-10T16:26:00.903Z,21.27
2022-09-10T16:28:27.401Z,21.21
2022-09-10T16:30:53.798Z,21.11
2022-09-10T16:33:20.242Z,21.04
2022-09-10T16:35:47.658Z,21.00
2022-09-10T16:38:14.216Z,20.95
2022-09-10T16:40:40.541Z,20.91
2022-09-10T16:43:06.928Z,20.89
2022-09-10T16:45:33.328Z,20.92
2022-09-10T16:48:03.961Z,20.88
2022-09-10T16:50:30.933Z,20.85
2022-09-10T16:52:57.253Z,20.84
2022-09-10T16:55:23.815Z,20.77
2022-09-10T16:57:50.166Z,20.77
2022-09-10T17:00:16.702Z,20.79
2022-09-10T17:02:43.229Z,20.82
2022-09-10T17:05:10.488Z,20.74
2022-09-10T17:07:37.250Z,20.67
2022-09-10T17:10:03.772Z,20.61
2022-09-10T17:12:30.190Z,20.55
2022-09-10T17:14:56.541Z,20.51
2022-09-10T17:17:24.210Z,20.46
2022-09-10T17:19:50.557Z,20.41
2022-09-10T17:22:16.972Z,20.30
2022-09-10T17:24:43.296Z,20.14
2022-09-10T17:27:11.346Z,20.03
2022-09-10T17:29:38.487Z,19.91
2022-09-10T17:32:05.605Z,19.85
2022-09-10T17:34:33.723Z,19.80
2022-09-10T17:37:00.078Z,19.73
2022-09-10T17:39:28.573Z,19.65
2022-09-10T17:41:56.364Z,19.55
2022-09-10T17:44:24.388Z,19.48
2022-09-10T17:46:50.862Z,19.38
2022-09-10T17:49:17.188Z,19.33
2022-09-10T17:51:43.779Z,19.29
2022-09-10T17:54:10.412Z,19.26
2022-09-10T17:56:38.043Z,19.21
2022-09-10T17:59:05.405Z,19.15
2022-09-10T18:01:36.138Z,19.12
2022-09-10T18:04:04.048Z,19.08
2022-09-10T18:06:31.963Z,19.02
2022-09-10T18:09:00.199Z,18.97
2022-09-10T18:11:29.417Z,18.97
2022-09-10T18:13:57.112Z,18.88
2022-09-10T18:16:26.640Z,18.81
2022-09-10T18:18:55.657Z,18.73
2022-09-10T18:21:28.228Z,18.67
2022-09-10T18:23:56.235Z,18.63
2022-09-10T18:26:25.159Z,18.56
2022-09-10T18:28:53.859Z,18.48
2022-09-10T18:31:20.329Z,18.43
2022-09-10T18:33:46.848Z,18.37
2022-09-10T18:36:16.307Z,18.33
2022-09-10T18:38:43.296Z,18.24
2022-09-10T18:41:23.456Z,18.19
2022-09-10T18:43:51.055Z,18.13
2022-09-10T18:46:18.956Z,18.08
2022-09-10T18:48:47.192Z,18.03
2022-09-10T18:51:16.056Z,17.97
2022-09-10T18:53:45.215Z,17.90
2022-09-10T18:56:18.000Z,17.85
2022-09-10T18:58:55.813Z,17.77
2022-09-10T19:01:23.849Z,17.74
2022-09-10T19:03:51.007Z,17.70
2022-09-10T19:06:20.669Z,17.66
2022-09-10T19:08:53.210Z,17.64
2022-09-10T19:11:21.652Z,17.57
2022-09-10T19:13:57.304Z,17.52
2022-09-10T19:16:27.514Z,17.48
2022-09-10T19:18:57.028Z,17.44
2022-09-10T19:21:26.238Z,17.44
2022-09-10T19:23:59.379Z,17.38
2022-09-10T19:26:31.647Z,17.38
2022-09-10T19:28:59.466Z,17.36
2022-09-10T19:31:27.580Z,17.30
2022-09-10T19:33:58.953Z,17.25
2022-09-10T19:36:30.742Z,17.21
2022-09-10T19:38:59.480Z,17.14
2022-09-10T19:41:26.091Z,17.10
2022-09-10T19:43:53.763Z,17.05
2022-09-10T19:46:22.385Z,17.02
2022-09-10T19:48:48.824Z,16.97
2022-09-10T19:51:18.991Z,16.92
2022-09-10T19:53:46.456Z,16.91
2022-09-10T19:56:19.734Z,16.92
2022-09-10T19:58:49.591Z,16.93
2022-09-10T20:01:21.279Z,16.90
2022-09-10T20:03:48.279Z,16.88
2022-09-10T20:06:18.257Z,16.83
2022-09-10T20:08:46.250Z,16.80
2022-09-10T20:11:23.894Z,16.74
2022-09-10T20:13:55.539Z,16.74
2022-09-10T20:16:23.724Z,16.72
2022-09-10T20:18:50.265Z,16.69
2022-09-10T20:21:20.157Z,16.68
2022-09-10T20:23:49.289Z,16.65
2022-09-10T20:26:21.304Z,16.65
2022-09-10T20:28:59.146Z,16.65
2022-09-10T20:31:27.844Z,16.63
2022-09-10T20:33:59.613Z,16.58
2022-09-10T20:36:27.520Z,16.53
2022-09-10T20:38:55.546Z,16.48
2022-09-10T20:41:23.363Z,16.44
2022-09-10T20:43:53.604Z,16.43
2022-09-10T20:46:22.489Z,16.42
2022-09-10T20:48:50.667Z,16.41
2022-09-10T20:51:18.735Z,16.39
2022-09-10T20:53:45.337Z,16.39
2022-09-10T20:56:14.175Z,16.35
2022-09-10T20:58:41.555Z,16.33
2022-09-10T21:01:17.255Z,16.30
2022-09-10T21:03:43.696Z,16.25
2022-09-10T21:06:11.671Z,16.18
2022-09-10T21:08:39.840Z,16.12
2022-09-10T21:11:09.843Z,16.07
2022-09-10T21:13:37.516Z,16.02
2022-09-10T21:16:13.592Z,16.02
2022-09-10T21:18:41.720Z,15.97
2022-09-10T21:21:12.780Z,15.90
2022-09-10T21:23:43.975Z,15.85
2022-09-10T21:26:14.861Z,15.81
2022-09-10T21:28:41.909Z,15.80
2022-09-10T21:31:09.720Z,15.78
2022-09-10T21:33:36.521Z,15.75
2022-09-10T21:36:09.732Z,15.74
2022-09-10T21:38:36.107Z,15.72
2022-09-10T21:41:03.674Z,15.70
2022-09-10T21:43:34.882Z,15.71
2022-09-10T21:46:02.419Z,15.65
2022-09-10T21:48:32.698Z,15.59
2022-09-10T21:51:00.422Z,15.55
2022-09-10T21:53:27.691Z,15.52
2022-09-10T21:55:55.805Z,15.45
2022-09-10T21:58:23.095Z,15.37
2022-09-10T22:00:49.734Z,15.29
2022-09-10T22:03:16.964Z,15.22
2022-09-10T22:05:43.350Z,15.16
2022-09-10T22:08:09.760Z,15.12
2022-09-10T22:10:39.904Z,15.07
2022-09-10T22:13:06.290Z,15.07
2022-09-10T22:15:41.445Z,15.06
2022-09-10T22:18:09.143Z,15.01
2022-09-10T22:20:36.395Z,15.01
2022-09-10T22:23:04.060Z,14.99
2022-09-10T22:25:31.105Z,14.96
2022-09-10T22:28:00.546Z,14.90
2022-09-10T22:30:30.288Z,14.89
2022-09-10T22:32:57.904Z,14.83
2022-09-10T22:35:27.001Z,14.82
2022-09-10T22:37:55.991Z,14.77
2022-09-10T22:40:24.377Z,14.76
2022-09-10T22:42:51.596Z,14.73
2022-09-10T22:45:20.908Z,14.71
2022-09-10T22:47:50.069Z,14.70
2022-09-10T22:50:17.141Z,14.66
2022-09-10T22:52:46.744Z,14.59
2022-09-10T22:55:13.431Z,14.57
2022-09-10T22:57:41.648Z,14.51
2022-09-10T23:00:12.820Z,14.51
2022-09-10T23:02:39.285Z,14.47
2022-09-10T23:05:06.529Z,14.41
2022-09-10T23:07:33.857Z,14.39
2022-09-10T23:10:01.187Z,14.36
2022-09-10T23:12:27.511Z,14.35
2022-09-10T23:14:53.900Z,14.30
2022-09-10T23:17:22.563Z,14.27
2022-09-10T23:19:49.114Z,14.23
2022-09-10T23:22:15.456Z,14.22
2022-09-10T23:24:41.789Z,14.20
2022-09-10T23:27:08.640Z,14.19
2022-09-10T23:29:36.395Z,14.18
2022-09-10T23:32:02.724Z,14.17
2022-09-10T23:34:29.062Z,14.19
2022-09-10T23:36:55.490Z,14.15
2022-09-10T23:39:23.983Z,14.13
2022-09-10T23:41:53.453Z,14.10
2022-09-10T23:44:20.332Z,14.09
2022-09-10T23:46:46.887Z,14.07
2022-09-10T23:49:13.529Z,14.04
2022-09-10T23:51:40.220Z,14.01
2022-09-10T23:54:06.643Z,14.00
2022-09-10T23:56:33.459Z,13.99
2022-09-10T23:58:59.998Z,13.97
